Station: Oenpelli Airport  

  Atmospheric Gas Attenuation - ITU Rec 676-11   ----------------- dB/100km -----------------
Date Time Temp RH % AH g/m3 Dew Point Wind Direction Speed kph Gust kph Barometer mB Rainfall Since 9am 24GHz 47GHz 76GHz 122GHz 134GHz 241GHz
01/09 02:00 23.9 78 16.87 19.8 6 7 1017.1 0 36.5 36.7 68.6 181.3 196.1 680.9
01/09 01:50 24.1 77 16.85 19.8 7 9 1017.2 0 36.5 36.6 68.3 180.6 195.3 678.1
01/09 01:40 24.1 77 16.85 19.8 7 11 1017.3 0 36.5 36.6 68.3 180.6 195.3 678.2
01/09 01:30 24.3 76 16.82 19.8 6 13 1017.3 0 36.4 36.5 68.0 179.7 194.4 674.8
01/09 01:20 24.4 76 16.91 19.9 7 11 1017.3 0 36.6 36.6 68.3 180.6 195.4 678.6
01/09 01:10 24.5 76 17.01 20 7 11 1017.4 0 36.8 36.7 68.7 181.6 196.7 682.9
01/09 01:00 24.6 75 16.88 19.9 7 9 1017.6 0 36.5 36.5 68.0 179.8 194.5 675.4
01/09 00:50 24.7 75 16.98 20 7 13 1017.6 0 36.7 36.6 68.4 180.8 195.7 679.7
01/09 00:40 24.9 75 17.17 20.2 7 13 1017.7 0 37.1 36.9 69.1 182.6 198.0 687.7
01/09 00:30 24.9 74 16.94 19.9 11 20 1017.6 0 36.6 36.5 68.0 179.8 194.6 675.8
01/09 00:20 25.1 73 16.9 19.9 15 24 1017.6 0 36.5 36.3 67.7 178.9 193.5 672.0
01/09 00:10 25.1 72 16.67 19.7 15 20 1017.6 0 36.0 35.9 66.7 176.1 190.2 660.4
01/09 00:00 25.1 71 16.44 19.5 13 22 1017.7 0 35.5 35.5 65.6 173.4 186.9 648.8
31/08 23:50 25.2 71 16.53 19.6 13 20 1017.6 0 35.7 35.6 66.0 174.3 187.9 652.4
31/08 23:40 25.4 69 16.24 19.3 13 22 1017.6 0 35.0 35.0 64.5 170.4 183.2 636.2
31/08 23:30 25.4 68 16.01 19.1 13 24 1017.5 0 34.6 34.6 63.5 167.7 179.9 624.7
31/08 23:20 25.3 67 15.69 18.7 11 17 1017.5 0 33.9 34.1 62.2 164.3 175.6 609.7
31/08 23:10 25.4 66 15.54 18.6 15 22 1017.5 0 33.6 33.8 61.5 162.3 173.3 601.6
31/08 23:00 25.3 63 14.75 17.7 13 24 1017.4 0 31.9 32.5 58.2 153.6 162.5 564.0
31/08 22:50 24.8 59 13.43 16.2 11 15 1017.4 0 29.2 30.4 53.1 140.0 145.7 505.1
31/08 22:40 24.6 55 12.38 15 9 13 1017.4 0 27.0 28.8 49.0 129.1 132.2 458.1
31/08 22:30 24.6 54 12.15 14.7 9 15 1017.4 0 26.5 28.4 48.1 126.7 129.3 447.8
31/08 22:20 24.7 54 12.22 14.8 11 15 1017.2 0 26.6 28.5 48.3 127.3 130.0 450.3
31/08 22:10 25 53 12.2 14.8 11 15 1017.2 0 26.6 28.4 48.0 126.6 129.2 447.7
31/08 22:00 25.2 51 11.87 14.3 11 15 1017.1 0 25.9 27.8 46.6 122.8 124.7 431.9
31/08 21:50 25.3 51 11.94 14.4 11 13 1017 0 26.0 27.9 46.9 123.4 125.4 434.4
31/08 21:40 25.2 51 11.87 14.3 11 15 1016.9 0 25.9 27.8 46.6 122.8 124.7 431.8
31/08 21:30 25.3 51 11.94 14.4 9 13 1016.9 0 26.0 27.9 46.8 123.4 125.4 434.4
31/08 21:20 25.4 50 11.77 14.2 11 15 1016.8 0 25.7 27.6 46.1 121.5 123.1 426.3
31/08 21:10 25.9 48 11.62 14.1 13 17 1016.7 0 25.3 27.2 45.3 119.2 120.4 417.1
31/08 21:00 26.1 48 11.75 14.2 11 17 1016.6 0 25.6 27.3 45.6 120.2 121.7 421.6
31/08 20:50 26 49 11.93 14.5 11 15 1016.5 0 26.0 27.6 46.4 122.2 124.1 430.0
31/08 20:40 26.1 49 12 14.6 11 15 1016.4 0 26.1 27.7 46.6 122.7 124.8 432.5
31/08 20:30 26.1 51 12.49 15.2 9 15 1016.3 0 27.1 28.5 48.5 127.7 131.0 454.0
31/08 20:20 26.1 53 12.98 15.8 9 17 1016.2 0 28.1 29.2 50.4 132.8 137.3 475.9
31/08 20:10 25.9 60 14.53 17.5 9 13 1016.1 0 31.4 31.8 56.8 149.8 158.1 548.7
31/08 20:00 26.3 59 14.61 17.6 9 13 1016 0 31.5 31.8 56.8 149.9 158.4 549.6
31/08 19:50 26.4 59 14.69 17.7 11 17 1015.9 0 31.7 31.9 57.0 150.6 159.2 552.7
31/08 19:40 26.7 59 14.93 18 11 20 1015.8 0 32.2 32.2 57.8 152.6 161.8 561.8
31/08 19:30 26.8 59 15.02 18.1 9 15 1015.6 0 32.4 32.3 58.1 153.4 162.8 565.3
31/08 19:20 27 58 14.93 18 9 15 1015.4 0 32.2 32.0 57.6 152.0 161.2 559.5
31/08 19:10 27.2 57 14.83 17.9 9 17 1015.1 0 31.9 31.8 57.0 150.5 159.4 553.3
31/08 19:00 27.7 55 14.71 17.8 13 19 1015 0 31.7 31.4 56.1 148.2 156.7 544.1
31/08 18:50 27.9 54 14.61 17.7 15 20 1014.7 0 31.4 31.2 55.6 146.7 155.0 538.0
31/08 18:40 28.2 52 14.3 17.4 13 19 1014.6 0 30.8 30.6 54.1 142.9 150.3 521.8
31/08 18:30 29.6 44 13.06 16.1 13 20 1014.4 0 28.1 28.2 48.4 127.7 132.1 458.3
31/08 18:20 31.8 32 10.69 13.1 11 17 1014.1 0 23.1 24.1 38.8 102.0 101.1 350.1
31/08 18:10 32.2 30 10.24 12.4 7 13 1013.9 0 22.1 23.4 37.1 97.5 95.7 331.1
31/08 18:00 32.4 29 10 12.1 7 11 1013.7 0 21.6 23.0 36.2 95.1 92.8 321.1
31/08 17:50 32.7 29 10.16 12.3 7 13 1013.7 0 21.9 23.1 36.6 96.2 94.2 326.0
31/08 17:40 32.7 28 9.81 11.8 4 9 1013.6 0 21.2 22.7 35.5 93.1 90.4 312.8
31/08 17:30 32.8 29 10.22 12.4 11 20 1013.6 0 22.0 23.2 36.7 96.6 94.7 327.8
31/08 17:20 33.3 28 10.13 12.3 13 28 1013.5 0 21.8 22.9 36.2 95.2 93.2 322.4
31/08 17:10 33.3 28 10.13 12.3 15 22 1013.4 0 21.8 22.9 36.2 95.2 93.2 322.4
31/08 17:00 33.9 27 10.08 12.3 17 26 1013.4 0 21.7 22.7 35.8 94.1 91.9 318.2
31/08 16:50 34 27 10.14 12.4 13 19 1013.4 0 21.8 22.8 36.0 94.5 92.5 320.1
31/08 16:40 33.9 27 10.08 12.3 15 20 1013.4 0 21.7 22.7 35.8 94.1 91.9 318.2
31/08 16:30 34.6 26 10.07 12.3 11 20 1013.4 0 21.6 22.5 35.5 93.2 91.1 315.2
31/08 16:20 34.2 26 9.86 12 15 24 1013.4 0 21.2 22.4 35.0 91.9 89.3 309.0
31/08 16:10 34.8 25 9.79 11.9 13 32 1013.3 0 21.1 22.1 34.5 90.6 87.9 304.2
31/08 16:00 34.4 26 9.97 12.1 15 20 1013.4 0 21.4 22.5 35.2 92.6 90.2 312.3
31/08 15:50 34.4 25 9.58 11.5 13 24 1013.4 0 20.6 22.0 34.0 89.3 86.2 298.0
31/08 15:40 34.5 25 9.63 11.6 9 17 1013.5 0 20.7 22.0 34.1 89.6 86.6 299.5
31/08 15:30 34.7 25 9.73 11.8 17 24 1013.6 0 20.9 22.1 34.4 90.3 87.4 302.4
31/08 15:20 34.7 25 9.73 11.8 7 19 1013.7 0 20.9 22.1 34.4 90.3 87.4 302.4
31/08 15:10 34.3 26 9.91 12 19 28 1013.9 0 21.3 22.4 35.1 92.2 89.7 310.6
31/08 15:00 34.6 26 10.07 12.3 15 24 1013.9 0 21.6 22.6 35.5 93.3 91.1 315.3
31/08 14:50 34.3 26 9.91 12 22 32 1014.1 0 21.3 22.4 35.1 92.3 89.8 310.6
31/08 14:40 33.9 26 9.71 11.7 13 22 1014.3 0 20.9 22.3 34.7 91.0 88.1 304.8
31/08 14:30 34.2 26 9.86 12 15 24 1014.5 0 21.2 22.4 35.0 92.0 89.4 309.2
31/08 14:20 34.4 26 9.97 12.1 17 26 1014.5 0 21.4 22.5 35.3 92.7 90.3 312.5
31/08 14:10 34.4 26 9.97 12.1 15 26 1014.7 0 21.4 22.5 35.3 92.7 90.3 312.6
31/08 14:00 34.1 26 9.81 11.9 15 24 1014.9 0 21.1 22.4 34.9 91.7 89.0 307.9
31/08 13:50 33.6 27 9.92 12 17 24 1015.1 0 21.4 22.6 35.5 93.2 90.7 313.9
31/08 13:40 34 28 10.51 12.9 13 28 1015.1 0 22.6 23.3 37.2 97.9 96.6 334.4
31/08 13:30 33.8 26 9.66 11.6 19 30 1015.5 0 20.8 22.3 34.6 90.8 87.8 303.6
31/08 13:20 34.2 26 9.86 12 17 32 1015.7 0 21.2 22.4 35.1 92.1 89.5 309.5
31/08 13:10 32.8 28 9.87 11.9 19 28 1015.9 0 21.3 22.8 35.7 93.8 91.1 315.2
31/08 13:00 33.6 27 9.92 12 17 30 1016 0 21.4 22.7 35.5 93.3 90.8 314.1
31/08 12:50 33.5 27 9.87 11.9 15 28 1016.2 0 21.3 22.6 35.4 93.0 90.4 312.6
31/08 12:40 32.7 27 9.46 11.3 17 35 1016.5 0 20.5 22.3 34.4 90.4 86.9 300.4
31/08 12:30 33 27 9.62 11.5 22 32 1016.7 0 20.8 22.4 34.8 91.4 88.3 305.3
31/08 12:20 32.7 27 9.46 11.3 22 33 1016.9 0 20.5 22.3 34.4 90.4 86.9 300.5
31/08 12:10 33 27 9.62 11.5 19 33 1017 0 20.8 22.4 34.8 91.5 88.3 305.4
31/08 12:00 32 28 9.46 11.2 19 43 1017.2 0 20.5 22.5 34.7 91.2 87.7 303.1
31/08 11:50 31.9 28 9.41 11.1 20 32 1017.5 0 20.4 22.4 34.6 90.9 87.3 301.7
31/08 11:40 31.6 29 9.59 11.4 22 32 1017.6 0 20.8 22.8 35.4 92.8 89.6 309.6
31/08 11:30 32 28 9.46 11.2 22 35 1017.9 0 20.5 22.5 34.8 91.3 87.8 303.3
31/08 11:20 31.7 28 9.31 11 24 33 1017.9 0 20.2 22.4 34.4 90.3 86.5 298.8
31/08 11:10 31.8 28 9.36 11 24 33 1018.3 0 20.3 22.4 34.5 90.6 86.9 300.4
31/08 11:00 32.3 28 9.61 11.5 19 32 1018.5 0 20.8 22.7 35.2 92.3 89.1 308.0
31/08 10:50 31.4 28 9.16 10.7 24 39 1018.6 0 19.9 22.3 34.1 89.4 85.2 294.4
31/08 10:40 31.1 29 9.33 11 26 41 1018.7 0 20.3 22.6 34.8 91.2 87.4 301.9
31/08 10:30 30.4 30 9.3 10.9 24 35 1018.9 0 20.3 22.7 35.0 91.7 87.8 303.4
31/08 10:20 30.3 31 9.56 11.3 24 35 1018.9 0 20.8 23.1 35.9 94.1 90.8 313.7
31/08 10:10 30.4 33 10.23 12.3 20 32 1019.1 0 22.2 24.0 38.1 100.1 98.1 339.4
31/08 10:00 29.9 33 9.96 12.3 24 35 1019.1 0 21.6 23.7 37.4 98.2 95.7 330.8
31/08 09:50 29.7 35 10.44 13 22 33 1019.1 0 22.6 24.5 39.1 102.8 101.3 350.7
31/08 09:40 29.2 38 11.04 13.4 24 35 1019.1 0 23.9 25.5 41.5 109.1 108.9 377.1
31/08 09:30 28.6 39 10.96 13.3 26 41 1019 0 23.8 25.5 41.5 109.1 108.8 376.6

Last Refresh: 01-Sep-2026 02:08:16

Bureau of Meteorology